sensor_id;sensor_type;location;lat;lon;timestamp;temperature;humidity
26270;DHT22;15937;50.612;6.656;2023-02-01T00:00:22;6.00;99.90
26270;DHT22;15937;50.612;6.656;2023-02-01T00:04:24;6.00;99.90
26270;DHT22;15937;50.612;6.656;2023-02-01T00:08:26;6.10;99.90
26270;DHT22;15937;50.612;6.656;2023-02-01T00:12:28;6.00;99.90
26270;DHT22;15937;50.612;6.656;2023-02-01T00:16:30;6.00;99.90
26270;DHT22;15937;50.612;6.656;2023-02-01T00:20:32;6.10;99.90
26270;DHT22;15937;50.612;6.656;2023-02-01T00:24:33;6.00;99.90
26270;DHT22;15937;50.612;6.656;2023-02-01T00:28:35;6.00;99.90
26270;DHT22;15937;50.612;6.656;2023-02-01T00:32:37;6.00;99.90
26270;DHT22;15937;50.612;6.656;2023-02-01T00:36:38;6.00;99.90
26270;DHT22;15937;50.612;6.656;2023-02-01T00:40:40;6.00;99.90
26270;DHT22;15937;50.612;6.656;2023-02-01T00:44:41;6.00;99.90
26270;DHT22;15937;50.612;6.656;2023-02-01T00:48:43;6.00;99.90
26270;DHT22;15937;50.612;6.656;2023-02-01T00:52:45;6.00;99.90
26270;DHT22;15937;50.612;6.656;2023-02-01T00:56:46;5.90;99.90
26270;DHT22;15937;50.612;6.656;2023-02-01T01:00:48;5.90;99.90
26270;DHT22;15937;50.612;6.656;2023-02-01T01:04:51;5.90;99.90
26270;DHT22;15937;50.612;6.656;2023-02-01T01:08:53;5.90;99.90
26270;DHT22;15937;50.612;6.656;2023-02-01T01:12:55;5.90;99.90
26270;DHT22;15937;50.612;6.656;2023-02-01T01:16:56;6.00;99.90
26270;DHT22;15937;50.612;6.656;2023-02-01T01:20:58;5.90;99.90
26270;DHT22;15937;50.612;6.656;2023-02-01T01:25:00;5.90;99.90
26270;DHT22;15937;50.612;6.656;2023-02-01T01:29:02;5.90;99.90
26270;DHT22;15937;50.612;6.656;2023-02-01T01:33:04;5.90;99.90
26270;DHT22;15937;50.612;6.656;2023-02-01T01:37:05;5.80;99.90
26270;DHT22;15937;50.612;6.656;2023-02-01T01:41:08;5.80;99.90
26270;DHT22;15937;50.612;6.656;2023-02-01T01:45:24;5.70;99.90
26270;DHT22;15937;50.612;6.656;2023-02-01T01:49:25;5.70;99.90
26270;DHT22;15937;50.612;6.656;2023-02-01T01:53:30;5.80;99.90
26270;DHT22;15937;50.612;6.656;2023-02-01T01:57:34;5.80;99.90
26270;DHT22;15937;50.612;6.656;2023-02-01T02:01:37;5.80;99.90
26270;DHT22;15937;50.612;6.656;2023-02-01T02:05:38;5.80;99.90
26270;DHT22;15937;50.612;6.656;2023-02-01T02:09:40;5.90;99.90
26270;DHT22;15937;50.612;6.656;2023-02-01T02:14:00;5.80;99.90
26270;DHT22;15937;50.612;6.656;2023-02-01T02:18:10;5.90;99.90
26270;DHT22;15937;50.612;6.656;2023-02-01T02:34:56;5.90;99.90
26270;DHT22;15937;50.612;6.656;2023-02-01T02:43:10;5.90;99.90
26270;DHT22;15937;50.612;6.656;2023-02-01T02:56:06;5.90;99.90
26270;DHT22;15937;50.612;6.656;2023-02-01T03:00:30;5.90;99.90
26270;DHT22;15937;50.612;6.656;2023-02-01T03:04:52;5.90;99.90
26270;DHT22;15937;50.612;6.656;2023-02-01T03:08:57;5.80;99.90
26270;DHT22;15937;50.612;6.656;2023-02-01T03:13:01;5.90;99.90
26270;DHT22;15937;50.612;6.656;2023-02-01T03:17:06;5.90;99.90
26270;DHT22;15937;50.612;6.656;2023-02-01T03:21:10;5.90;99.90
26270;DHT22;15937;50.612;6.656;2023-02-01T03:25:23;5.90;99.90
26270;DHT22;15937;50.612;6.656;2023-02-01T03:29:27;5.90;99.90
26270;DHT22;15937;50.612;6.656;2023-02-01T03:33:31;5.90;99.90
26270;DHT22;15937;50.612;6.656;2023-02-01T03:37:33;6.00;99.90
26270;DHT22;15937;50.612;6.656;2023-02-01T03:41:40;5.90;99.90
26270;DHT22;15937;50.612;6.656;2023-02-01T03:45:43;5.90;99.90
26270;DHT22;15937;50.612;6.656;2023-02-01T03:53:47;6.00;99.90
26270;DHT22;15937;50.612;6.656;2023-02-01T03:57:57;5.90;99.90
26270;DHT22;15937;50.612;6.656;2023-02-01T04:02:00;6.00;99.90
26270;DHT22;15937;50.612;6.656;2023-02-01T04:06:02;5.90;99.90
26270;DHT22;15937;50.612;6.656;2023-02-01T04:10:04;5.90;99.90
26270;DHT22;15937;50.612;6.656;2023-02-01T04:14:29;5.80;99.90
26270;DHT22;15937;50.612;6.656;2023-02-01T04:18:55;5.70;99.90
26270;DHT22;15937;50.612;6.656;2023-02-01T04:23:21;5.70;99.90
26270;DHT22;15937;50.612;6.656;2023-02-01T04:27:47;5.60;99.90
26270;DHT22;15937;50.612;6.656;2023-02-01T04:32:16;5.60;99.90
26270;DHT22;15937;50.612;6.656;2023-02-01T04:36:41;5.60;99.90
26270;DHT22;15937;50.612;6.656;2023-02-01T04:41:07;5.50;99.90
26270;DHT22;15937;50.612;6.656;2023-02-01T04:45:34;5.40;99.90
26270;DHT22;15937;50.612;6.656;2023-02-01T04:49:59;5.30;99.90
26270;DHT22;15937;50.612;6.656;2023-02-01T04:54:26;5.40;99.90
26270;DHT22;15937;50.612;6.656;2023-02-01T04:58:52;5.30;99.90
26270;DHT22;15937;50.612;6.656;2023-02-01T05:03:18;5.30;99.90
26270;DHT22;15937;50.612;6.656;2023-02-01T05:07:44;5.20;99.90
26270;DHT22;15937;50.612;6.656;2023-02-01T22:20:12;6.60;99.90
26270;DHT22;15937;50.612;6.656;2023-02-01T22:24:15;6.60;99.90
26270;DHT22;15937;50.612;6.656;2023-02-01T22:28:17;6.60;99.90
26270;DHT22;15937;50.612;6.656;2023-02-01T22:32:33;6.70;99.90
26270;DHT22;15937;50.612;6.656;2023-02-01T22:36:35;6.70;99.90
26270;DHT22;15937;50.612;6.656;2023-02-01T22:40:37;6.70;99.90
26270;DHT22;15937;50.612;6.656;2023-02-01T22:44:38;6.80;99.90
26270;DHT22;15937;50.612;6.656;2023-02-01T22:48:42;6.80;99.90
26270;DHT22;15937;50.612;6.656;2023-02-01T22:52:44;6.80;99.90
26270;DHT22;15937;50.612;6.656;2023-02-01T22:56:46;6.90;99.90
26270;DHT22;15937;50.612;6.656;2023-02-01T23:00:47;6.80;99.90
26270;DHT22;15937;50.612;6.656;2023-02-01T23:04:49;6.80;99.90
26270;DHT22;15937;50.612;6.656;2023-02-01T23:08:55;6.60;99.90
26270;DHT22;15937;50.612;6.656;2023-02-01T23:12:56;6.60;99.90
26270;DHT22;15937;50.612;6.656;2023-02-01T23:16:58;6.60;99.90
26270;DHT22;15937;50.612;6.656;2023-02-01T23:21:11;6.70;99.90
26270;DHT22;15937;50.612;6.656;2023-02-01T23:30:17;6.70;99.90
26270;DHT22;15937;50.612;6.656;2023-02-01T23:34:19;6.60;99.90
26270;DHT22;15937;50.612;6.656;2023-02-01T23:38:20;6.60;99.90
26270;DHT22;15937;50.612;6.656;2023-02-01T23:42:22;6.60;99.90
26270;DHT22;15937;50.612;6.656;2023-02-01T23:46:28;6.60;99.90
26270;DHT22;15937;50.612;6.656;2023-02-01T23:50:29;6.70;99.90
26270;DHT22;15937;50.612;6.656;2023-02-01T23:54:31;6.70;99.90
26270;DHT22;15937;50.612;6.656;2023-02-01T23:58:34;6.70;99.90
